Time;durP1;ratioP1;P1;durP2;ratioP2;P2;SDS_P1;SDS_P2;PMS_P1;PMS_P2;Temp;Humidity;BMP_temperature;BMP_pressure;BME280_temperature;BME280_humidity;BME280_pressure;Samples;Min_cycle;Max_cycle;Signal;HPM_P1;HPM_P2
2022/10/21 00:00:36;;;;;;;14.63;6.00;;;;;;;11.19;51.42;99481.00;4503395;31;20122;-82
2022/10/21 00:03:02;;;;;;;14.50;5.90;;;;;;;11.22;51.27;99478.22;4503377;31;20118;-82
2022/10/21 00:05:28;;;;;;;14.30;6.12;;;;;;;11.15;51.54;99487.34;4503359;31;20108;-81
2022/10/21 00:07:57;;;;;;;13.10;5.20;;;;;;;11.12;51.55;99480.41;4488741;31;20096;-81
2022/10/21 00:10:22;;;;;;;12.63;5.37;;;;;;;11.23;51.23;99472.03;4503351;31;20425;-81
2022/10/21 00:12:48;;;;;;;12.50;5.07;;;;;;;11.27;51.23;99478.88;4503354;31;20103;-81
2022/10/21 00:15:13;;;;;;;13.70;5.25;;;;;;;11.24;51.24;99480.78;4503172;31;20130;-82
2022/10/21 00:17:40;;;;;;;13.95;5.72;;;;;;;11.24;51.28;99480.78;4503230;31;20458;-82
2022/10/21 00:20:08;;;;;;;12.70;5.35;;;;;;;11.27;51.28;99473.59;4503388;31;20108;-82
2022/10/21 00:22:34;;;;;;;12.45;5.30;;;;;;;11.26;51.21;99471.91;4488853;31;20091;-82
2022/10/21 00:24:59;;;;;;;12.32;5.30;;;;;;;11.23;51.28;99473.81;4503271;31;20179;-81
2022/10/21 00:27:28;;;;;;;14.80;5.40;;;;;;;11.23;51.34;99468.53;4488864;31;20130;-82
2022/10/21 00:29:53;;;;;;;13.07;5.43;;;;;;;11.14;51.58;99469.81;4503274;31;20150;-81
2022/10/21 00:32:19;;;;;;;13.65;5.20;;;;;;;11.18;51.50;99463.47;4503269;31;20138;-81
2022/10/21 00:34:45;;;;;;;14.20;5.70;;;;;;;11.05;52.10;99459.66;4503144;31;20084;-82
2022/10/21 00:37:12;;;;;;;13.50;4.95;;;;;;;11.15;51.66;99453.91;4489015;31;20107;-82
2022/10/21 00:39:38;;;;;;;12.00;5.32;;;;;;;11.18;51.45;99455.56;4488863;31;20156;-82
2022/10/21 00:42:05;;;;;;;12.32;5.50;;;;;;;11.12;51.50;99450.56;4503270;31;20100;-83
2022/10/21 00:44:31;;;;;;;13.20;5.30;;;;;;;11.18;51.33;99448.50;4503057;31;20083;-82
2022/10/21 00:47:03;;;;;;;11.55;4.68;;;;;;;11.15;51.24;99437.25;4503186;31;20478;-82
2022/10/21 00:49:40;;;;;;;12.90;4.87;;;;;;;11.14;51.02;99441.66;4488832;31;20156;-83
2022/10/21 00:52:08;;;;;;;14.00;5.37;;;;;;;11.12;50.89;99432.09;4488754;31;20084;-82
2022/10/21 00:54:33;;;;;;;;;;;;;;;11.11;50.83;99439.16;4489157;31;20208;-82
2022/10/21 00:56:58;;;;;;;12.55;4.95;;;;;;;10.99;51.23;99435.31;4503024;31;19975;-82
2022/10/21 00:59:26;;;;;;;12.05;4.93;;;;;;;11.06;51.05;99432.41;4503032;31;20114;-82
2022/10/21 01:01:53;;;;;;;12.30;5.05;;;;;;;11.07;50.92;99429.69;4488799;31;20166;-82
2022/10/21 01:04:18;;;;;;;11.48;4.53;;;;;;;11.05;50.59;99431.56;4488597;31;20077;-82
2022/10/21 01:06:50;;;;;;;17.12;5.28;;;;;;;11.04;50.60;99435.09;4485343;32;20247;-82
2022/10/21 01:09:16;;;;;;;14.07;4.95;;;;;;;11.00;50.56;99436.16;4487217;31;20483;-82
2022/10/21 01:11:44;;;;;;;13.30;4.85;;;;;;;11.01;50.56;99419.44;4486061;32;20478;-82
2022/10/21 01:14:28;;;;;;;11.80;4.80;;;;;;;11.04;50.75;99413.16;4485916;32;20143;-82
2022/10/21 01:17:09;;;;;;;10.75;4.43;;;;;;;10.95;50.84;99423.22;4487207;31;20123;-81
2022/10/21 01:20:11;;;;;;;11.35;4.40;;;;;;;10.89;50.78;99427.88;4487065;32;20118;-82
2022/10/21 01:22:48;;;;;;;11.65;4.25;;;;;;;10.95;50.51;99414.41;4487353;32;20080;-82
2022/10/21 01:25:22;;;;;;;12.32;5.00;;;;;;;10.80;50.92;99418.62;4487004;31;20056;-82
2022/10/21 01:27:57;;;;;;;11.55;5.05;;;;;;;10.82;51.06;99422.06;4485874;32;20127;-82
2022/10/21 01:30:35;;;;;;;16.15;4.97;;;;;;;10.87;50.97;99420.03;4486004;32;20574;-82
2022/10/21 01:33:01;;;;;;;;;;;;;;;10.80;51.05;99419.47;4485899;31;20084;-82
2022/10/21 01:35:29;;;;;;;12.90;4.50;;;;;;;10.81;50.83;99423.81;4487066;32;19985;-80
2022/10/21 01:38:06;;;;;;;;;;;;;;;10.88;50.59;99413.87;4496798;31;20107;-82
2022/10/21 01:40:52;;;;;;;11.68;4.50;;;;;;;10.87;50.71;99412.13;4502848;31;20001;-83
2022/10/21 01:43:42;;;;;;;13.20;4.70;;;;;;;10.79;50.98;99401.09;4502941;31;20114;-82
2022/10/21 01:46:25;;;;;;;10.90;4.47;;;;;;;10.79;50.99;99383.50;4502688;31;20436;-82
2022/10/21 01:48:55;;;;;;;11.23;4.40;;;;;;;10.78;50.97;99388.88;4501554;31;20095;-82
2022/10/21 01:51:21;;;;;;;11.23;4.20;;;;;;;10.75;51.01;99378.44;4501489;31;20471;-81
2022/10/21 01:53:53;;;;;;;12.32;4.50;;;;;;;10.80;50.93;99384.37;4501470;31;20566;-82
2022/10/21 01:56:22;;;;;;;11.12;4.68;;;;;;;10.74;51.00;99382.00;4488544;31;20096;-82
2022/10/21 01:58:48;;;;;;;10.95;4.20;;;;;;;10.77;50.95;99382.72;4488666;31;20130;-82
2022/10/21 02:01:15;;;;;;;11.45;4.18;;;;;;;10.78;50.99;99384.44;4501564;31;20497;-82
2022/10/21 02:03:43;;;;;;;13.97;5.83;;;;;;;10.79;51.04;99391.41;4502768;31;20092;-81
2022/10/21 02:06:08;;;;;;;11.35;4.62;;;;;;;10.78;51.17;99391.50;4485448;31;20542;-82
2022/10/21 02:08:34;;;;;;;12.20;4.55;;;;;;;10.59;51.66;99383.56;4486577;31;20088;-83
2022/10/21 02:11:02;;;;;;;11.32;4.57;;;;;;;10.63;51.48;99385.13;4486591;32;20096;-82
2022/10/21 02:13:45;;;;;;;10.98;4.43;;;;;;;10.65;51.33;99385.06;4484699;32;20084;-82
2022/10/21 02:16:15;;;;;;;12.68;4.45;;;;;;;10.68;51.36;99387.53;4486599;31;20076;-82
2022/10/21 02:18:40;;;;;;;11.00;4.40;;;;;;;10.54;51.71;99394.28;4485330;32;20799;-82
2022/10/21 02:21:10;;;;;;;12.15;4.07;;;;;;;10.59;51.56;99387.03;4486509;32;20076;-82
2022/10/21 02:23:43;;;;;;;11.07;4.00;;;;;;;10.60;51.70;99393.16;4486528;31;20076;-82
2022/10/21 02:26:11;;;;;;;12.10;4.70;;;;;;;10.65;51.55;99404.38;4472039;32;20103;-81
2022/10/21 02:28:37;;;;;;;11.35;4.75;;;;;;;10.61;51.62;99398.37;4486395;32;20092;-81
2022/10/21 02:31:21;;;;;;;11.12;4.35;;;;;;;10.60;51.61;99399.31;4485175;32;20088;-81
2022/10/21 02:34:08;;;;;;;13.32;5.03;;;;;;;10.61;51.64;99398.37;4486424;31;20168;-81
2022/10/21 02:36:57;;;;;;;12.68;4.50;;;;;;;10.61;51.74;99394.88;4485252;32;20099;-81
2022/10/21 02:39:29;;;;;;;14.02;5.12;;;;;;;10.48;52.00;99410.38;4485107;32;20097;-81
2022/10/21 02:41:56;;;;;;;12.93;4.57;;;;;;;10.57;51.77;99399.44;4485118;32;20122;-81
2022/10/21 02:44:22;;;;;;;11.43;4.60;;;;;;;10.59;51.82;99402.00;4486199;31;20110;-81
2022/10/21 02:46:47;;;;;;;12.30;4.93;;;;;;;10.54;51.87;99396.06;4485005;32;20168;-81
2022/10/21 02:49:13;;;;;;;12.65;4.78;;;;;;;10.54;51.83;99398.72;4484812;32;20391;-81
2022/10/21 02:51:39;;;;;;;13.40;5.07;;;;;;;10.53;51.82;99395.22;4486086;31;20145;-81
2022/10/21 02:54:04;;;;;;;12.77;5.10;;;;;;;10.54;51.81;99383.75;4485926;31;20079;-81
2022/10/21 02:56:29;;;;;;;11.48;4.68;;;;;;;10.55;51.87;99384.63;4491309;31;20498;-81
2022/10/21 02:58:55;;;;;;;11.95;4.72;;;;;;;10.53;51.97;99382.06;4485767;31;20088;-81
2022/10/21 03:01:20;;;;;;;13.30;4.65;;;;;;;10.42;52.13;99387.78;4471732;32;20460;-82
2022/10/21 03:03:46;;;;;;;13.07;5.28;;;;;;;10.47;52.05;99381.47;4485670;32;20114;-82
2022/10/21 03:06:11;;;;;;;11.80;5.05;;;;;;;10.47;52.05;99390.25;4485536;32;20432;-83
2022/10/21 03:08:36;;;;;;;12.50;4.90;;;;;;;10.48;52.16;99386.66;4485690;32;20115;-83
2022/10/21 03:11:02;;;;;;;12.73;5.05;;;;;;;10.46;52.18;99392.94;4471454;32;20402;-81
2022/10/21 03:13:27;;;;;;;15.02;5.80;;;;;;;10.39;52.34;99398.47;4485715;32;20107;-81
2022/10/21 03:15:53;;;;;;;12.43;5.37;;;;;;;10.37;52.32;99389.78;4485596;32;20112;-81
2022/10/21 03:18:18;;;;;;;12.95;5.20;;;;;;;10.24;52.71;99392.06;4485667;32;20088;-81
2022/10/21 03:20:47;;;;;;;15.23;5.28;;;;;;;10.34;52.67;99389.06;4485765;31;20088;-80
2022/10/21 03:23:13;;;;;;;12.85;5.30;;;;;;;10.35;52.66;99389.00;4499935;31;20107;-80
2022/10/21 03:25:38;;;;;;;13.25;5.50;;;;;;;10.36;52.67;99389.84;4502385;31;20376;-81
2022/10/21 03:28:04;;;;;;;13.15;5.62;;;;;;;10.34;52.74;99396.97;4503553;31;20108;-81
2022/10/21 03:30:29;;;;;;;14.50;5.15;;;;;;;10.33;52.81;99390.81;4489237;31;20174;-81
2022/10/21 03:32:55;;;;;;;13.18;5.62;;;;;;;10.31;52.87;99384.78;4503629;31;20076;-81
2022/10/21 03:35:20;;;;;;;12.43;5.68;;;;;;;10.34;52.92;99375.91;4489210;31;20450;-80
2022/10/21 03:37:45;;;;;;;12.93;5.30;;;;;;;10.31;53.04;99366.34;4503669;31;20114;-81
2022/10/21 03:40:11;;;;;;;14.35;6.32;;;;;;;10.28;53.08;99366.47;4503484;31;20099;-80
2022/10/21 03:42:36;;;;;;;16.62;6.70;;;;;;;10.19;53.19;99356.31;4503536;31;20096;-81
2022/10/21 03:45:02;;;;;;;14.73;6.75;;;;;;;10.19;53.19;99365.06;4503198;31;20136;-81
2022/10/21 03:47:27;;;;;;;14.98;6.55;;;;;;;10.20;53.17;99379.12;4503423;31;20379;-81
2022/10/21 03:49:53;;;;;;;14.60;6.43;;;;;;;10.11;53.38;99379.50;4503519;31;20140;-81
2022/10/21 03:52:18;;;;;;;17.02;6.93;;;;;;;10.15;53.31;99374.03;4503438;31;20131;-81
2022/10/21 03:54:44;;;;;;;14.95;7.10;;;;;;;10.11;53.37;99369.81;4503523;31;20102;-81
2022/10/21 03:57:09;;;;;;;15.18;7.45;;;;;;;10.14;53.31;99366.19;4503445;31;20150;-81
2022/10/21 03:59:34;;;;;;;17.80;7.95;;;;;;;10.07;53.50;99362.13;4503378;31;20140;-82
2022/10/21 04:02:00;;;;;;;16.65;7.80;;;;;;;10.06;53.65;99360.41;4503558;31;20480;-82
2022/10/21 04:04:25;;;;;;;17.02;7.78;;;;;;;10.03;53.78;99351.72;4503490;31;20117;-81
2022/10/21 04:06:51;;;;;;;16.42;8.20;;;;;;;9.99;54.02;99363.31;4488875;31;20131;-81
2022/10/21 04:09:16;;;;;;;14.73;7.47;;;;;;;10.02;54.05;99362.31;4503628;31;20108;-81
2022/10/21 04:11:42;;;;;;;17.95;7.95;;;;;;;10.02;54.17;99357.94;4475852;31;20106;-81
2022/10/21 04:14:07;;;;;;;19.65;8.65;;;;;;;10.02;54.06;99355.31;4503214;31;20125;-81
2022/10/21 04:16:33;;;;;;;18.85;8.85;;;;;;;10.02;54.09;99341.25;4503641;31;20092;-81
2022/10/21 04:18:59;;;;;;;18.33;8.65;;;;;;;9.99;54.14;99344.87;4503603;31;20112;-81
2022/10/21 04:21:27;;;;;;;16.60;8.93;;;;;;;9.98;54.15;99350.22;4503207;31;20110;-80
2022/10/21 04:23:52;;;;;;;17.62;8.00;;;;;;;9.94;54.28;99348.62;4503208;31;20113;-81
2022/10/21 04:26:17;;;;;;;18.55;9.07;;;;;;;9.97;54.26;99351.16;4503221;31;20088;-81
2022/10/21 04:28:43;;;;;;;19.15;8.45;;;;;;;9.90;54.47;99347.91;4503302;31;20128;-81
2022/10/21 04:31:08;;;;;;;20.17;8.52;;;;;;;9.93;54.38;99342.53;4503077;31;20107;-82
2022/10/21 04:33:34;;;;;;;16.90;8.25;;;;;;;9.94;54.23;99346.84;4503219;31;20122;-82
2022/10/21 04:35:59;;;;;;;17.77;8.00;;;;;;;9.95;54.25;99345.09;4502911;31;20123;-82
2022/10/21 04:38:25;;;;;;;19.37;8.73;;;;;;;9.91;54.27;99339.09;4503376;31;20076;-81
2022/10/21 04:40:58;;;;;;;17.70;8.50;;;;;;;9.88;54.17;99333.97;4503235;31;20151;-82
2022/10/21 04:43:24;;;;;;;20.80;8.30;;;;;;;9.87;54.30;99332.28;4501851;31;20147;-82
2022/10/21 04:45:49;;;;;;;18.20;8.50;;;;;;;9.87;54.33;99331.41;4503186;31;20491;-82
2022/10/21 04:48:15;;;;;;;15.60;7.60;;;;;;;9.82;54.50;99318.44;4503282;31;20088;-82
2022/10/21 04:50:40;;;;;;;19.90;8.60;;;;;;;9.81;54.48;99309.72;4501991;31;20370;-81
2022/10/21 04:53:05;;;;;;;19.62;9.02;;;;;;;9.80;54.52;99309.75;4502916;31;20079;-82
2022/10/21 04:55:31;;;;;;;17.62;8.05;;;;;;;9.77;54.65;99321.28;4502792;31;20117;-82
2022/10/21 04:57:56;;;;;;;17.08;8.80;;;;;;;9.81;54.57;99306.19;4503032;31;20114;-81
2022/10/21 05:00:22;;;;;;;17.50;8.77;;;;;;;9.80;54.63;99307.13;4503049;31;20114;-82
2022/10/21 05:02:47;;;;;;;18.40;9.70;;;;;;;9.75;54.72;99306.47;4503010;31;20371;-82
2022/10/21 05:05:13;;;;;;;19.10;8.90;;;;;;;9.75;54.73;99309.94;4502943;31;20360;-82
2022/10/21 05:07:38;;;;;;;19.87;8.95;;;;;;;9.75;54.68;99312.56;4502813;31;20163;-82
2022/10/21 05:10:04;;;;;;;19.08;8.70;;;;;;;9.80;54.64;99309.75;4501703;31;20092;-81
2022/10/21 05:12:29;;;;;;;17.83;8.07;;;;;;;9.80;54.62;99322.91;4503217;31;20130;-81
2022/10/21 05:14:55;;;;;;;18.15;8.55;;;;;;;9.77;54.63;99326.56;4488375;31;20096;-81
2022/10/21 05:17:20;;;;;;;19.17;8.43;;;;;;;9.76;54.59;99322.19;4488001;31;20379;-82
2022/10/21 05:19:46;;;;;;;19.77;9.15;;;;;;;9.81;54.40;99317.59;4502629;31;20084;-84
2022/10/21 05:22:11;;;;;;;22.20;9.27;;;;;;;9.80;54.50;99307.97;4502704;31;20106;-86
2022/10/21 05:24:37;;;;;;;17.90;8.73;;;;;;;9.82;54.50;99314.03;4502662;31;20132;-82
2022/10/21 05:27:02;;;;;;;19.00;8.30;;;;;;;9.83;54.66;99315.75;4502827;31;20096;-83
2022/10/21 05:29:33;;;;;;;17.20;7.97;;;;;;;9.88;54.75;99315.53;4503084;31;20455;-80
2022/10/21 05:31:58;;;;;;;18.92;8.35;;;;;;;9.95;54.70;99310.88;4497294;31;20552;-81
2022/10/21 05:34:24;;;;;;;18.25;8.50;;;;;;;10.01;54.64;99303.56;4494291;31;20097;-81
2022/10/21 05:36:49;;;;;;;18.42;8.40;;;;;;;10.09;54.66;99299.75;4494617;31;20088;-81
2022/10/21 05:39:14;;;;;;;18.17;9.13;;;;;;;10.14;54.70;99301.25;4493298;31;20144;-82
2022/10/21 05:41:40;;;;;;;19.60;9.15;;;;;;;10.28;54.55;99318.22;4495210;31;20091;-81
2022/10/21 05:44:05;;;;;;;18.70;8.43;;;;;;;10.38;54.33;99316.91;4493812;31;20100;-84
2022/10/21 05:46:31;;;;;;;17.87;8.57;;;;;;;10.39;54.31;99326.50;4494544;31;20111;-84
2022/10/21 05:48:56;;;;;;;18.35;9.13;;;;;;;10.46;53.93;99327.09;4492482;31;20100;-84
2022/10/21 05:51:25;;;;;;;17.23;9.38;;;;;;;10.57;53.65;99322.19;4480794;32;20092;-82
2022/10/21 05:53:54;;;;;;;17.73;7.82;;;;;;;10.60;53.36;99300.94;4486771;31;20413;-81
2022/10/21 05:56:19;;;;;;;17.25;8.32;;;;;;;10.61;53.12;99289.50;4486737;31;20092;-81
2022/10/21 05:58:45;;;;;;;17.70;8.73;;;;;;;10.72;52.56;99295.13;4486772;31;20114;-83
2022/10/21 06:01:10;;;;;;;16.77;8.57;;;;;;;10.86;52.11;99312.91;4486689;31;20083;-83
2022/10/21 06:03:35;;;;;;;16.37;8.18;;;;;;;10.95;51.33;99319.53;4480774;31;181952;-82
2022/10/21 06:06:04;;;;;;;17.00;7.90;;;;;;;11.05;51.34;99327.84;4478549;32;20166;-81
2022/10/21 06:08:31;;;;;;;16.80;8.30;;;;;;;11.10;50.91;99341.66;4490678;31;20092;-83
2022/10/21 06:10:59;;;;;;;17.80;7.75;;;;;;;10.86;50.36;99344.56;4467519;31;20093;-81
2022/10/21 06:13:27;;;;;;;19.52;7.62;;;;;;;10.97;49.90;99352.81;4483213;31;20139;-83
2022/10/21 06:15:52;;;;;;;17.75;7.93;;;;;;;11.06;49.81;99354.16;4493063;31;20147;-87
2022/10/21 06:18:18;;;;;;;16.48;7.72;;;;;;;11.16;50.01;99357.19;4479125;31;20084;-86
2022/10/21 06:20:43;;;;;;;15.73;7.68;;;;;;;11.03;50.03;99354.31;4477213;31;20085;-86
2022/10/21 06:23:14;;;;;;;15.57;7.57;;;;;;;11.04;49.81;99349.88;4495301;31;20122;-86
2022/10/21 06:25:39;;;;;;;14.13;7.20;;;;;;;11.15;49.71;99342.31;4478443;31;20269;-86
2022/10/21 06:28:04;;;;;;;14.73;6.95;;;;;;;11.30;49.65;99341.56;4490363;31;20476;-86
2022/10/21 06:30:30;;;;;;;16.27;7.57;;;;;;;11.41;49.31;99347.19;4477840;32;20108;-86
2022/10/21 06:32:55;;;;;;;16.83;7.57;;;;;;;11.46;49.22;99335.56;4477530;31;20365;-86
2022/10/21 06:35:21;;;;;;;15.85;7.60;;;;;;;11.48;49.17;99342.44;4493435;31;20355;-86
2022/10/21 06:37:46;;;;;;;16.35;7.03;;;;;;;11.55;49.23;99351.78;4492410;31;20080;-87
2022/10/21 06:40:11;;;;;;;15.02;7.65;;;;;;;11.34;48.86;99360.75;4478056;31;20092;-87
2022/10/21 06:42:37;;;;;;;20.37;8.07;;;;;;;11.15;48.99;99371.31;4491690;31;20101;-86
2022/10/21 06:45:03;;;;;;;15.65;7.68;;;;;;;11.37;48.79;99355.31;4495331;31;20088;-86
2022/10/21 06:47:28;;;;;;;17.70;7.78;;;;;;;11.54;48.40;99355.34;4478062;32;20131;-86
2022/10/21 06:49:53;;;;;;;16.73;7.82;;;;;;;11.61;48.17;99359.38;4497680;31;20107;-86
2022/10/21 06:52:19;;;;;;;14.90;7.65;;;;;;;11.70;48.06;99349.28;4488261;31;20341;-86
2022/10/21 06:54:44;;;;;;;16.77;7.43;;;;;;;11.79;47.87;99349.69;4482707;32;20088;-86
2022/10/21 06:57:10;;;;;;;17.12;7.65;;;;;;;11.84;48.05;99338.03;4492707;31;20398;-87
2022/10/21 06:59:35;;;;;;;15.65;7.78;;;;;;;11.83;48.32;99337.19;4483948;32;20484;-86
2022/10/21 07:02:00;;;;;;;18.10;7.60;;;;;;;11.89;48.29;99334.25;4489932;31;20265;-86
2022/10/21 07:04:29;;;;;;;18.70;7.95;;;;;;;11.69;48.91;99326.50;4495088;31;20388;-86
2022/10/21 07:06:54;;;;;;;16.45;8.00;;;;;;;11.97;48.07;99323.31;4492919;31;20442;-83
2022/10/21 07:09:20;;;;;;;17.45;9.10;;;;;;;12.06;47.91;99330.75;4488181;31;20164;-87
2022/10/21 07:11:46;;;;;;;19.00;8.10;;;;;;;12.04;48.02;99329.97;4487719;31;20452;-86
2022/10/21 07:14:11;;;;;;;16.90;9.18;;;;;;;12.06;48.25;99330.75;4488719;31;20111;-86
2022/10/21 07:16:37;;;;;;;18.42;8.38;;;;;;;12.12;48.02;99334.88;4502935;31;20084;-86
2022/10/21 07:19:03;;;;;;;18.83;8.05;;;;;;;12.07;47.99;99331.59;4488237;31;20103;-86
2022/10/21 07:21:30;;;;;;;17.00;8.10;;;;;;;12.03;47.42;99343.25;4503611;31;20118;-87
2022/10/21 07:23:56;;;;;;;19.65;7.93;;;;;;;11.85;48.14;99348.53;4489406;31;20100;-86
2022/10/21 07:26:22;;;;;;;18.05;7.82;;;;;;;11.88;47.92;99344.84;4489331;31;20549;-86
2022/10/21 07:28:48;;;;;;;18.67;7.95;;;;;;;11.89;48.02;99344.81;4503613;31;20083;-86
2022/10/21 07:31:14;;;;;;;16.65;7.10;;;;;;;12.20;46.94;99351.16;4503666;31;20111;-86
2022/10/21 07:33:40;;;;;;;16.60;7.82;;;;;;;12.41;46.23;99350.97;4503658;31;20145;-86
2022/10/21 07:36:08;;;;;;;18.87;7.97;;;;;;;12.55;45.92;99356.38;4489284;31;20110;-86
2022/10/21 07:38:33;;;;;;;15.80;7.45;;;;;;;12.60;45.57;99354.34;4503586;31;20080;-86
2022/10/21 07:40:59;;;;;;;15.15;6.95;;;;;;;12.71;45.50;99351.09;4489382;31;20085;-86
2022/10/21 07:43:24;;;;;;;17.00;8.23;;;;;;;12.76;45.55;99347.28;4503554;31;20114;-87
2022/10/21 07:45:50;;;;;;;16.62;8.15;;;;;;;12.87;45.22;99351.13;4488830;31;20164;-86
2022/10/21 07:48:15;;;;;;;17.87;7.90;;;;;;;12.91;45.02;99342.09;4503437;31;20076;-86
2022/10/21 07:50:41;;;;;;;16.30;7.37;;;;;;;13.02;44.69;99344.13;4503484;31;20088;-87
2022/10/21 07:53:06;;;;;;;17.55;8.00;;;;;;;13.04;44.68;99334.31;4503784;31;20127;-86
2022/10/21 07:55:32;;;;;;;14.77;7.00;;;;;;;13.04;44.66;99332.53;4503832;31;20084;-87
2022/10/21 07:57:57;;;;;;;13.88;6.80;;;;;;;13.11;44.21;99328.59;4489405;31;20084;-86
2022/10/21 08:00:23;;;;;;;17.05;7.15;;;;;;;13.25;43.88;99329.59;4503752;31;20510;-86
2022/10/21 08:02:54;;;;;;;15.00;6.60;;;;;;;13.12;44.41;99326.81;4489415;31;20088;-86
2022/10/21 08:05:21;;;;;;;16.23;7.68;;;;;;;13.32;44.28;99315.97;4503749;31;20156;-86
2022/10/21 08:07:46;;;;;;;14.70;7.03;;;;;;;13.34;44.10;99310.59;4489235;31;20075;-86
2022/10/21 08:10:12;;;;;;;19.85;7.80;;;;;;;13.40;44.22;99304.09;4503199;31;20127;-87
2022/10/21 08:12:37;;;;;;;18.70;8.43;;;;;;;13.42;44.50;99294.28;4503463;31;20143;-87
2022/10/21 08:15:03;;;;;;;15.82;7.37;;;;;;;13.42;44.12;99292.47;4503397;31;20103;-86
2022/10/21 08:17:28;;;;;;;16.10;7.72;;;;;;;13.45;43.72;99302.91;4488896;31;20083;-87
2022/10/21 08:19:55;;;;;;;16.05;7.40;;;;;;;13.39;44.11;99300.63;4503401;31;20464;-87
2022/10/21 08:22:20;;;;;;;15.43;7.20;;;;;;;13.49;43.74;99293.00;4503271;31;20440;-86
2022/10/21 08:24:46;;;;;;;19.10;7.55;;;;;;;13.41;43.52;99295.25;4503115;31;20072;-86
2022/10/21 08:27:11;;;;;;;15.75;7.47;;;;;;;13.31;43.67;99290.47;4475793;31;20092;-87
2022/10/21 08:29:37;;;;;;;16.17;7.50;;;;;;;13.45;43.74;99288.81;4475131;31;20160;-87
2022/10/21 08:32:03;;;;;;;18.87;8.07;;;;;;;13.26;43.87;99289.00;4503343;31;20088;-85
2022/10/21 08:34:28;;;;;;;15.25;6.95;;;;;;;13.36;43.77;99284.91;4488686;31;20106;-86
2022/10/21 08:36:54;;;;;;;16.75;7.65;;;;;;;13.52;43.40;99282.19;4503157;31;20080;-87
2022/10/21 08:39:20;;;;;;;16.55;7.43;;;;;;;13.59;43.62;99291.50;4503039;31;20466;-86
2022/10/21 08:42:00;;;;;;;15.90;6.70;;;;;;;13.50;43.15;99290.25;4503112;31;20096;-86
2022/10/21 08:44:30;;;;;;;15.27;6.65;;;;;;;12.74;44.28;99287.50;4488724;31;20458;-86
2022/10/21 08:47:06;;;;;;;16.23;7.47;;;;;;;13.49;43.18;99277.94;4488627;31;20100;-87
2022/10/21 08:50:05;;;;;;;14.45;6.45;;;;;;;13.72;42.70;99265.16;4503199;31;20100;-87
2022/10/21 08:52:47;;;;;;;17.25;6.70;;;;;;;13.89;42.53;99257.03;4503501;31;20096;-87
2022/10/21 08:55:21;;;;;;;14.25;6.15;;;;;;;14.19;41.74;99268.50;4475955;31;20088;-86
2022/10/21 08:57:46;;;;;;;13.93;6.15;;;;;;;14.45;41.27;99257.13;4503097;31;20144;-87
2022/10/21 09:00:18;;;;;;;14.95;6.57;;;;;;;14.64;41.11;99251.56;4502983;31;20095;-86
2022/10/21 09:03:21;;;;;;;15.65;6.47;;;;;;;14.61;41.10;99251.72;4503105;31;20119;-87
2022/10/21 09:05:49;;;;;;;13.73;5.97;;;;;;;14.97;40.46;99246.78;4503220;31;20435;-86
2022/10/21 09:08:40;;;;;;;13.30;6.03;;;;;;;15.13;40.29;99247.50;4502802;31;20071;-87
2022/10/21 09:11:12;;;;;;;12.98;5.72;;;;;;;15.26;39.85;99242.22;4488674;31;20131;-86
2022/10/21 09:13:58;;;;;;;14.32;5.90;;;;;;;15.32;39.38;99237.38;4488186;31;20134;-88
2022/10/21 09:16:36;;;;;;;12.13;5.30;;;;;;;15.46;39.40;99233.78;4502687;31;20103;-87
2022/10/21 09:19:04;;;;;;;13.73;4.80;;;;;;;15.53;39.44;99232.41;4503011;31;20135;-86
2022/10/21 09:21:38;;;;;;;9.73;4.00;;;;;;;15.36;38.86;99231.87;4488359;31;20463;-87
2022/10/21 09:24:10;;;;;;;10.77;4.50;;;;;;;15.63;37.96;99229.97;4501946;31;20439;-86
2022/10/21 09:26:35;;;;;;;9.43;3.97;;;;;;;15.78;38.24;99225.47;4488627;31;20167;-87
2022/10/21 09:29:24;;;;;;;10.88;4.15;;;;;;;15.92;37.78;99224.50;4488378;31;20459;-87
2022/10/21 09:31:49;;;;;;;12.45;4.60;;;;;;;15.98;37.61;99226.72;4502857;31;20126;-86
2022/10/21 09:34:38;;;;;;;11.60;4.43;;;;;;;16.01;37.31;99217.69;4503064;31;20119;-87
2022/10/21 09:37:05;;;;;;;9.80;4.18;;;;;;;16.12;37.13;99218.63;4502828;31;20109;-86
2022/10/21 09:39:42;;;;;;;13.50;4.80;;;;;;;16.14;36.84;99218.50;4488697;31;20403;-87
2022/10/21 09:42:11;;;;;;;13.32;4.62;;;;;;;16.18;36.84;99208.53;4488850;31;20092;-88
2022/10/21 09:44:37;;;;;;;10.82;4.07;;;;;;;16.34;36.67;99194.97;4488701;31;20108;-87
2022/10/21 09:47:21;;;;;;;11.48;4.28;;;;;;;16.07;37.03;99188.88;4488682;31;20457;-86
2022/10/21 09:49:50;;;;;;;11.68;4.72;;;;;;;16.31;36.64;99185.41;4488710;31;20115;-87
2022/10/21 09:52:17;;;;;;;11.95;4.32;;;;;;;16.34;36.36;99195.84;4488661;31;20252;-87
2022/10/21 09:54:43;;;;;;;12.65;4.65;;;;;;;16.26;36.62;99192.87;4502959;31;20100;-87
2022/10/21 09:57:38;;;;;;;11.57;4.30;;;;;;;16.39;36.54;99185.72;4488441;31;20110;-86
2022/10/21 10:00:04;;;;;;;12.32;4.37;;;;;;;16.38;36.07;99188.47;4493856;31;20102;-87
2022/10/21 10:02:38;;;;;;;10.68;4.18;;;;;;;16.34;35.97;99181.69;4488409;31;20491;-87
2022/10/21 10:05:46;;;;;;;10.98;4.00;;;;;;;16.32;35.66;99187.09;4487887;31;20112;-87
2022/10/21 10:08:30;;;;;;;10.65;4.03;;;;;;;16.38;35.84;99173.38;4502616;31;20107;-88
2022/10/21 10:11:07;;;;;;;12.13;4.40;;;;;;;16.46;35.54;99170.19;4502595;31;20132;-86
2022/10/21 10:13:34;;;;;;;10.13;4.25;;;;;;;16.47;35.52;99171.84;4502363;31;20092;-87
2022/10/21 10:16:11;;;;;;;11.45;3.90;;;;;;;16.42;35.96;99166.88;4502487;31;20100;-87
2022/10/21 10:18:36;;;;;;;13.27;4.18;;;;;;;16.41;36.10;99157.19;4502388;31;20407;-88
2022/10/21 10:21:09;;;;;;;10.73;3.72;;;;;;;16.49;36.10;99156.63;4487958;31;20076;-87
2022/10/21 10:23:44;;;;;;;11.38;3.92;;;;;;;16.33;35.82;99153.41;4502276;31;20482;-87
2022/10/21 10:26:09;;;;;;;11.12;3.72;;;;;;;16.37;35.99;99158.38;4487905;31;20118;-87
2022/10/21 10:28:35;;;;;;;11.05;3.72;;;;;;;16.43;35.85;99141.13;4487860;31;20148;-88
2022/10/21 10:31:01;;;;;;;9.85;3.55;;;;;;;16.43;35.15;99147.28;4487750;31;20114;-87
2022/10/21 10:33:29;;;;;;;10.13;3.75;;;;;;;16.27;35.35;99149.38;4488093;31;20702;-86
2022/10/21 10:35:57;;;;;;;12.75;4.03;;;;;;;16.37;35.53;99144.25;4504007;31;20107;-87
2022/10/21 10:38:31;;;;;;;;;;;;;;;16.46;35.39;99136.44;4490183;31;20080;-86
2022/10/21 10:41:16;;;;;;;11.05;3.58;;;;;;;16.63;35.43;99132.56;4476614;31;20371;-87
2022/10/21 10:43:48;;;;;;;10.77;4.20;;;;;;;16.76;35.47;99127.16;4476548;31;20112;-87
2022/10/21 10:46:24;;;;;;;9.07;3.20;;;;;;;16.71;35.41;99124.84;4489608;31;20112;-86
2022/10/21 10:48:52;;;;;;;10.07;3.53;;;;;;;16.77;35.60;99120.88;4504042;31;20107;-87
2022/10/21 10:51:28;;;;;;;11.35;3.67;;;;;;;16.78;34.95;99106.59;4504217;31;20111;-87
2022/10/21 10:54:06;;;;;;;11.23;3.85;;;;;;;16.74;34.89;99102.47;4504029;31;20104;-87
2022/10/21 10:56:50;;;;;;;9.68;3.75;;;;;;;16.76;35.03;99108.53;4503989;31;20083;-87
2022/10/21 10:59:51;;;;;;;10.45;4.05;;;;;;;16.82;35.05;99099.25;4504050;31;20104;-86
2022/10/21 11:02:28;;;;;;;13.40;3.30;;;;;;;16.82;35.14;99085.97;4489554;31;20151;-87
2022/10/21 11:05:06;;;;;;;9.33;3.50;;;;;;;16.86;34.77;99074.13;4503792;31;20096;-87
2022/10/21 11:07:36;;;;;;;9.95;3.90;;;;;;;16.93;33.87;99086.00;4503684;31;20099;-87
2022/10/21 11:10:38;;;;;;;11.43;3.50;;;;;;;16.94;34.29;99084.19;4476350;31;20092;-87
2022/10/21 11:13:12;;;;;;;11.90;3.97;;;;;;;16.94;34.30;99081.50;4489853;31;20106;-88
2022/10/21 11:15:42;;;;;;;14.10;3.92;;;;;;;16.94;34.23;99078.84;4489433;31;20108;-88
2022/10/21 11:18:18;;;;;;;9.88;3.65;;;;;;;16.94;34.52;99079.72;4489630;31;20150;-87
2022/10/21 11:20:56;;;;;;;10.07;3.33;;;;;;;17.01;34.49;99070.28;4489700;31;20195;-88
2022/10/21 11:23:50;;;;;;;9.80;3.22;;;;;;;17.07;34.30;99072.50;4489251;31;20145;-87
2022/10/21 11:26:34;;;;;;;10.95;3.60;;;;;;;17.16;34.11;99064.75;4503636;31;20542;-87
2022/10/21 11:29:22;;;;;;;11.23;3.40;;;;;;;17.18;33.85;99060.16;4503921;31;20752;-87
2022/10/21 11:32:03;;;;;;;11.83;4.10;;;;;;;17.21;34.41;99060.78;4503636;31;20083;-87
2022/10/21 11:34:50;;;;;;;10.63;3.42;;;;;;;17.19;34.29;99054.72;4503757;31;20511;-87
2022/10/21 11:37:24;;;;;;;10.98;3.85;;;;;;;17.08;34.32;99054.72;4503563;31;20418;-86